Time;durP1;ratioP1;P1;durP2;ratioP2;P2;SDS_P1;SDS_P2;PMS_P1;PMS_P2;Temp;Humidity;BMP_temperature;BMP_pressure;BME280_temperature;BME280_humidity;BME280_pressure;Samples;Min_cycle;Max_cycle;Signal;HPM_P1;HPM_P2
2021/12/25 00:00:33;;;;;;;4.10;1.20;;;-5.30;99.90;;;;;;5094658;28;20266;-78
2021/12/25 00:02:59;;;;;;;2.53;1.43;;;-5.20;99.90;;;;;;5094427;28;20473;-78
2021/12/25 00:05:25;;;;;;;3.07;1.50;;;-5.20;99.90;;;;;;5094519;28;20501;-78
2021/12/25 00:07:50;;;;;;;2.73;2.23;;;-5.20;99.90;;;;;;5094464;28;20243;-79
2021/12/25 00:10:16;;;;;;;2.30;1.10;;;-5.30;99.90;;;;;;5094542;28;20164;-79
2021/12/25 00:12:42;;;;;;;1.77;1.60;;;-5.40;99.90;;;;;;5094195;28;20585;-79
2021/12/25 00:15:08;;;;;;;4.50;1.47;;;-5.40;99.90;;;;;;5094292;28;20195;-78
2021/12/25 00:17:34;;;;;;;2.90;1.63;;;-5.40;99.90;;;;;;5094392;28;20229;-78
2021/12/25 00:20:00;;;;;;;3.50;1.87;;;-5.40;99.90;;;;;;5094274;28;20912;-79
2021/12/25 00:22:26;;;;;;;1.80;1.70;;;-5.30;99.90;;;;;;5093995;28;20548;-78
2021/12/25 00:24:51;;;;;;;2.00;1.70;;;-5.60;99.90;;;;;;5094236;28;20571;-78
2021/12/25 00:30:08;;;;;;;4.17;1.90;;;-5.80;99.90;;;;;;5094191;28;20671;-78
2021/12/25 00:35:05;;;;;;;3.57;2.00;;;-5.90;99.90;;;;;;5094045;28;20414;-78
2021/12/25 00:37:31;;;;;;;1.80;1.70;;;-5.80;99.90;;;;;;5093846;28;20422;-79
2021/12/25 00:39:56;;;;;;;4.23;2.90;;;-5.90;99.90;;;;;;5093616;28;20303;-78
2021/12/25 00:42:22;;;;;;;3.13;2.60;;;-5.90;99.90;;;;;;5093399;28;20208;-79
2021/12/25 00:44:48;;;;;;;4.30;2.37;;;-5.90;99.90;;;;;;5093927;28;20165;-79
2021/12/25 00:47:14;;;;;;;3.03;1.77;;;-5.70;99.90;;;;;;5093702;28;20180;-80
2021/12/25 00:49:39;;;;;;;3.20;2.33;;;-5.60;99.90;;;;;;5093732;28;20466;-79
2021/12/25 00:52:05;;;;;;;3.30;1.57;;;-5.60;99.90;;;;;;5075654;28;20172;-80
2021/12/25 00:54:31;;;;;;;3.20;2.30;;;-5.70;99.90;;;;;;5093594;28;20252;-78
2021/12/25 00:56:57;;;;;;;3.57;1.40;;;-5.60;99.90;;;;;;5093276;28;20418;-79
2021/12/25 00:59:22;;;;;;;2.27;1.70;;;-5.60;99.90;;;;;;5093458;28;20928;-79
2021/12/25 01:01:48;;;;;;;6.00;1.97;;;-5.60;99.90;;;;;;5093593;28;20211;-79
2021/12/25 01:04:13;;;;;;;4.90;2.70;;;-5.70;99.90;;;;;;5093445;28;20184;-80
2021/12/25 01:06:39;;;;;;;3.17;1.83;;;-5.60;99.90;;;;;;5093487;28;20613;-79
2021/12/25 01:09:06;;;;;;;2.73;2.30;;;-5.70;99.90;;;;;;5093440;28;20168;-80
2021/12/25 01:11:34;;;;;;;2.30;2.20;;;-5.70;99.90;;;;;;5092981;28;20168;-79
2021/12/25 01:14:20;;;;;;;4.10;2.17;;;-5.70;99.90;;;;;;5093396;28;20410;-79
2021/12/25 01:22:42;;;;;;;2.40;1.90;;;-5.60;99.90;;;;;;5093241;28;20505;-79
2021/12/25 01:33:02;;;;;;;1.33;1.23;;;-5.80;99.90;;;;;;5093218;28;20430;-79
2021/12/25 01:48:34;;;;;;;1.87;1.70;;;-6.00;99.90;;;;;;5097538;28;20870;-79
2021/12/25 01:51:00;;;;;;;3.23;1.60;;;-6.00;99.90;;;;;;5097203;28;20417;-79
2021/12/25 01:53:26;;;;;;;2.00;1.87;;;-6.00;99.90;;;;;;5097143;28;20428;-80
2021/12/25 01:55:52;;;;;;;2.67;2.47;;;-5.90;99.90;;;;;;5096611;28;20910;-79
2021/12/25 01:58:18;;;;;;;2.50;1.50;;;-6.00;99.90;;;;;;5112647;28;20565;-79
2021/12/25 02:00:47;;;;;;;2.07;1.50;;;-6.00;99.90;;;;;;5096930;28;20421;-78
2021/12/25 02:03:16;;;;;;;2.13;1.80;;;-5.90;99.90;;;;;;5096731;28;20473;-79
2021/12/25 02:05:42;;;;;;;1.30;1.20;;;-5.90;99.90;;;;;;5096904;28;20418;-83
2021/12/25 02:08:08;;;;;;;1.27;1.17;;;-6.00;99.90;;;;;;5096707;28;20467;-79
2021/12/25 02:10:34;;;;;;;3.33;2.17;;;-6.10;99.90;;;;;;5096858;28;20168;-79
2021/12/25 02:13:02;;;;;;;3.40;2.33;;;-6.20;99.90;;;;;;5095222;28;20414;-79
2021/12/25 02:15:29;;;;;;;2.10;1.80;;;-6.10;99.90;;;;;;5096628;28;20411;-79
2021/12/25 02:18:13;;;;;;;2.07;1.60;;;-6.00;99.90;;;;;;5096714;28;20426;-79
2021/12/25 02:20:49;;;;;;;1.30;1.20;;;-6.10;99.90;;;;;;5096751;28;20470;-82
2021/12/25 02:23:22;;;;;;;3.57;2.07;;;-6.10;99.90;;;;;;5096551;28;20465;-79
2021/12/25 02:25:54;;;;;;;2.23;1.93;;;-6.10;99.90;;;;;;5096230;28;21014;-78
2021/12/25 02:28:20;;;;;;;2.37;2.20;;;-6.20;99.90;;;;;;5095141;28;20422;-80
2021/12/25 02:30:48;;;;;;;2.23;1.70;;;-6.20;99.90;;;;;;5096421;28;20402;-79
2021/12/25 02:33:16;;;;;;;2.67;2.47;;;-6.20;99.90;;;;;;5095057;28;20468;-79
2021/12/25 02:35:41;;;;;;;2.53;2.33;;;-6.20;99.90;;;;;;5096294;28;20813;-79
2021/12/25 02:38:07;;;;;;;1.73;1.63;;;-6.50;99.90;;;;;;5094779;28;20462;-80
2021/12/25 02:40:32;;;;;;;2.90;1.80;;;-6.50;99.90;;;;;;5112231;28;20267;-79
2021/12/25 02:42:59;;;;;;;1.67;1.57;;;;;;;;;;5095615;28;20220;-79
2021/12/25 02:45:25;;;;;;;1.87;1.63;;;-6.60;99.90;;;;;;5096042;28;20183;-79
2021/12/25 02:47:53;;;;;;;1.80;1.70;;;-6.60;99.90;;;;;;5096178;28;20418;-81
2021/12/25 02:50:27;;;;;;;1.57;1.47;;;-6.70;99.90;;;;;;5095370;28;20421;-79
2021/12/25 02:52:54;;;;;;;1.90;1.80;;;-6.70;99.90;;;;;;5095997;28;20410;-79
2021/12/25 02:55:20;;;;;;;1.70;1.60;;;-6.80;99.90;;;;;;5095905;28;20902;-79
2021/12/25 02:57:50;;;;;;;3.33;2.50;;;-6.60;99.90;;;;;;5095442;28;20426;-79
2021/12/25 03:00:21;;;;;;;2.00;1.53;;;-6.50;99.90;;;;;;5094461;28;20660;-79
2021/12/25 03:02:47;;;;;;;4.07;2.97;;;-6.60;99.90;;;;;;5094415;28;20480;-79
2021/12/25 03:05:13;;;;;;;2.73;2.33;;;-6.60;99.90;;;;;;5095678;28;20407;-79
2021/12/25 03:07:39;;;;;;;1.87;1.30;;;-6.80;99.90;;;;;;5095594;28;20168;-79
2021/12/25 03:10:06;;;;;;;7.70;3.27;;;-6.90;99.90;;;;;;5095661;28;20191;-79
2021/12/25 03:12:38;;;;;;;3.83;3.10;;;-6.70;99.90;;;;;;5095130;28;20415;-78
2021/12/25 03:15:14;;;;;;;2.63;2.43;;;-6.70;99.90;;;;;;5095542;28;20407;-79
2021/12/25 03:17:40;;;;;;;2.30;2.20;;;-6.70;99.90;;;;;;5095543;28;20406;-81
2021/12/25 03:20:08;;;;;;;2.70;2.50;;;-6.80;99.90;;;;;;5095366;28;20426;-80
2021/12/25 03:22:34;;;;;;;1.90;1.80;;;-6.60;99.90;;;;;;5094045;28;20472;-79
2021/12/25 03:25:00;;;;;;;2.70;1.57;;;-6.60;99.90;;;;;;5095429;28;20410;-79
2021/12/25 03:27:26;;;;;;;3.30;3.00;;;-6.60;99.90;;;;;;5095085;28;20421;-79
2021/12/25 03:29:52;;;;;;;2.10;1.60;;;-6.60;99.90;;;;;;5093942;28;20165;-79
2021/12/25 03:32:18;;;;;;;2.53;2.10;;;-6.80;99.90;;;;;;5095117;28;20422;-79
2021/12/25 03:34:44;;;;;;;2.83;2.63;;;-6.80;99.90;;;;;;5095139;28;20404;-78
2021/12/25 03:37:10;;;;;;;4.33;2.40;;;-6.80;99.90;;;;;;5094049;28;20517;-79
2021/12/25 03:39:35;;;;;;;2.07;1.97;;;-6.70;99.90;;;;;;5095106;28;20696;-79
2021/12/25 03:42:01;;;;;;;4.43;2.57;;;-6.80;99.90;;;;;;5094472;28;20215;-78
2021/12/25 03:44:28;;;;;;;1.37;1.37;;;-6.90;99.90;;;;;;5094902;28;20180;-78
2021/12/25 03:46:59;;;;;;;3.00;2.70;;;-6.90;99.90;;;;;;5094903;28;21074;-79
2021/12/25 03:53:04;;;;;;;4.53;2.80;;;-6.90;99.90;;;;;;5095076;28;21008;-78
2021/12/25 03:57:50;;;;;;;6.47;3.20;;;-6.80;99.90;;;;;;5094831;28;20464;-78
2021/12/25 04:00:16;;;;;;;3.97;2.50;;;-6.60;99.90;;;;;;5093020;28;20438;-78
2021/12/25 04:02:56;;;;;;;2.47;2.23;;;-6.60;99.90;;;;;;5094291;28;20960;-80
2021/12/25 04:05:27;;;;;;;4.00;2.17;;;-6.60;99.90;;;;;;5094542;28;20462;-78
2021/12/25 04:10:21;;;;;;;4.97;2.70;;;-6.60;99.90;;;;;;5094517;28;20418;-78
2021/12/25 04:12:47;;;;;;;2.50;2.40;;;-6.80;99.90;;;;;;5092858;28;20423;-79
2021/12/25 04:15:13;;;;;;;2.60;2.50;;;-6.80;99.90;;;;;;5093133;28;20172;-79
2021/12/25 04:17:38;;;;;;;1.37;1.20;;;-7.00;99.90;;;;;;5094309;28;20521;-81
2021/12/25 04:20:04;;;;;;;3.77;2.50;;;-7.20;99.90;;;;;;5094231;28;20173;-79
2021/12/25 04:22:41;;;;;;;2.27;2.03;;;-7.30;99.90;;;;;;5094124;28;20208;-79
2021/12/25 04:25:07;;;;;;;2.27;2.10;;;-7.30;99.90;;;;;;5094198;28;20424;-78
2021/12/25 04:27:33;;;;;;;3.27;2.40;;;-6.90;99.90;;;;;;5093785;28;20497;-79
2021/12/25 04:30:06;;;;;;;3.87;1.83;;;-7.10;99.90;;;;;;5094091;28;20406;-78
2021/12/25 04:33:26;;;;;;;2.53;2.20;;;-7.20;99.90;;;;;;5094229;28;20403;-78
2021/12/25 05:05:24;;;;;;;2.00;1.90;;;-7.40;99.90;;;;;;5093613;28;20467;-79
2021/12/25 05:07:50;;;;;;;1.20;1.10;;;-7.30;99.90;;;;;;5093465;28;20426;-78
2021/12/25 05:10:16;;;;;;;1.50;1.40;;;-7.30;99.90;;;;;;5093052;28;20168;-78
2021/12/25 05:12:41;;;;;;;2.13;1.63;;;-7.40;99.90;;;;;;5093860;28;20202;-78
2021/12/25 05:15:07;;;;;;;2.73;1.97;;;-7.30;99.90;;;;;;5093828;28;20160;-79
2021/12/25 05:17:33;;;;;;;5.90;2.37;;;-7.20;99.90;;;;;;5093331;28;20200;-79
2021/12/25 05:19:59;;;;;;;3.90;3.17;;;-7.30;99.90;;;;;;5093312;28;20438;-79
2021/12/25 05:22:25;;;;;;;1.57;1.47;;;-7.20;99.90;;;;;;5093320;28;20207;-79
2021/12/25 05:24:51;;;;;;;1.83;1.80;;;-7.20;99.90;;;;;;5093304;28;20404;-79
2021/12/25 05:27:18;;;;;;;1.57;1.47;;;-7.20;99.90;;;;;;5092909;28;20410;-79
2021/12/25 05:29:46;;;;;;;9.20;2.70;;;-7.00;99.90;;;;;;5093132;28;20406;-79
2021/12/25 05:32:14;;;;;;;4.00;2.03;;;-7.00;99.90;;;;;;5093101;28;20414;-80
2021/12/25 05:34:39;;;;;;;2.40;2.17;;;-7.00;99.90;;;;;;5093262;28;20406;-79
2021/12/25 05:37:05;;;;;;;4.20;2.33;;;-6.90;99.90;;;;;;5093218;28;20398;-79
2021/12/25 05:39:31;;;;;;;2.90;1.77;;;-7.00;99.90;;;;;;5092948;28;20565;-79
2021/12/25 05:41:58;;;;;;;2.00;1.77;;;-7.00;99.90;;;;;;5092640;28;20200;-79
2021/12/25 05:44:25;;;;;;;3.47;2.93;;;-7.00;99.90;;;;;;5093150;28;20191;-80
2021/12/25 05:46:50;;;;;;;2.23;1.40;;;-7.00;99.90;;;;;;5093152;28;20406;-79
2021/12/25 05:49:16;;;;;;;4.53;2.20;;;-6.90;99.90;;;;;;5093035;28;20414;-79
2021/12/25 05:51:42;;;;;;;3.13;2.17;;;-6.90;99.90;;;;;;5093243;28;20176;-79
2021/12/25 05:54:07;;;;;;;2.83;2.63;;;-7.00;99.90;;;;;;5092733;28;20230;-79
2021/12/25 05:56:33;;;;;;;7.53;2.00;;;-7.00;99.90;;;;;;5092615;28;20184;-79
2021/12/25 05:58:59;;;;;;;2.40;1.93;;;-6.90;99.90;;;;;;5093018;28;20175;-79
2021/12/25 06:01:25;;;;;;;1.77;1.67;;;-7.00;99.90;;;;;;5092906;28;20622;-79
2021/12/25 06:03:51;;;;;;;6.70;2.47;;;-7.00;99.90;;;;;;5092964;28;20251;-79
2021/12/25 06:06:16;;;;;;;1.90;1.70;;;-6.90;99.90;;;;;;5092894;28;21001;-83
2021/12/25 06:08:42;;;;;;;2.67;2.27;;;-7.00;99.90;;;;;;5093072;28;20164;-79
2021/12/25 06:11:08;;;;;;;6.73;3.00;;;-7.10;99.90;;;;;;5092738;28;20203;-83
2021/12/25 06:13:38;;;;;;;2.53;2.27;;;-6.90;99.90;;;;;;5108537;28;20172;-79
2021/12/25 06:16:04;;;;;;;3.27;2.80;;;-6.90;99.90;;;;;;5092992;28;20213;-79
2021/12/25 06:18:29;;;;;;;4.40;2.33;;;-7.00;99.90;;;;;;5092681;28;20406;-79
2021/12/25 06:20:55;;;;;;;4.23;3.07;;;-6.90;99.90;;;;;;5091496;28;20581;-79
2021/12/25 06:23:21;;;;;;;2.37;2.17;;;-7.00;99.90;;;;;;5092753;28;20211;-79
2021/12/25 06:25:46;;;;;;;2.20;2.00;;;-7.00;99.90;;;;;;5094548;28;20260;-79
2021/12/25 06:28:12;;;;;;;2.40;2.30;;;-6.90;99.90;;;;;;5096436;28;20222;-79
2021/12/25 06:30:38;;;;;;;2.40;2.17;;;-6.90;99.90;;;;;;5096384;28;20254;-79
2021/12/25 06:33:04;;;;;;;2.33;2.13;;;-6.90;99.90;;;;;;5096329;28;20165;-84
2021/12/25 06:35:31;;;;;;;4.30;2.17;;;-6.90;99.90;;;;;;5096477;28;20410;-78
2021/12/25 06:37:57;;;;;;;2.97;1.50;;;-6.90;99.90;;;;;;5096043;28;20490;-78
2021/12/25 06:40:23;;;;;;;2.37;2.17;;;-6.90;99.90;;;;;;5095963;28;20517;-79
2021/12/25 06:42:48;;;;;;;2.03;1.80;;;-6.90;99.90;;;;;;5094753;28;20557;-79
2021/12/25 06:45:15;;;;;;;1.80;1.70;;;-7.10;99.90;;;;;;5096142;28;20164;-79
2021/12/25 06:47:40;;;;;;;3.30;3.00;;;-7.00;99.90;;;;;;5095974;28;20828;-81
2021/12/25 06:50:08;;;;;;;2.23;2.10;;;-7.20;99.90;;;;;;5096294;28;20406;-79
2021/12/25 06:52:34;;;;;;;4.40;2.50;;;-7.60;99.90;;;;;;5095999;28;20184;-78
2021/12/25 06:55:00;;;;;;;1.53;1.43;;;-7.60;99.90;;;;;;5095595;28;20414;-79
2021/12/25 06:57:28;;;;;;;2.53;2.27;;;-7.50;99.90;;;;;;5077826;28;20426;-79
2021/12/25 06:59:54;;;;;;;3.40;2.50;;;-7.40;99.90;;;;;;5095837;28;20183;-79
2021/12/25 07:02:19;;;;;;;2.60;2.10;;;-7.30;99.90;;;;;;5095712;28;20465;-79
2021/12/25 07:04:45;;;;;;;2.33;2.13;;;-7.30;99.90;;;;;;5095701;28;20411;-79
2021/12/25 07:07:10;;;;;;;2.87;2.40;;;-7.20;99.90;;;;;;5095577;28;20255;-78
2021/12/25 07:09:36;;;;;;;1.97;1.80;;;-7.10;99.90;;;;;;5095688;28;20585;-79
2021/12/25 07:12:03;;;;;;;3.13;2.17;;;-7.10;99.90;;;;;;5095389;28;20174;-79
2021/12/25 07:14:28;;;;;;;2.80;2.40;;;-7.20;99.90;;;;;;5095537;28;20172;-78
2021/12/25 07:16:54;;;;;;;2.13;2.03;;;-7.20;99.90;;;;;;5095416;28;20843;-79
2021/12/25 07:19:19;;;;;;;4.67;2.33;;;-7.10;99.90;;;;;;5095293;28;20172;-79
2021/12/25 07:21:45;;;;;;;2.17;1.63;;;-7.30;99.90;;;;;;5095242;28;20208;-80
2021/12/25 07:24:12;;;;;;;2.20;1.87;;;-7.20;99.90;;;;;;5111031;28;20268;-79
2021/12/25 07:26:38;;;;;;;4.33;2.30;;;-7.40;99.90;;;;;;5094987;28;20173;-78
2021/12/25 07:29:04;;;;;;;2.60;2.00;;;-7.10;99.90;;;;;;5095391;28;20984;-83
2021/12/25 07:31:29;;;;;;;4.10;2.23;;;-7.10;99.90;;;;;;5095260;28;20411;-78
2021/12/25 07:33:55;;;;;;;2.37;2.17;;;-7.20;99.90;;;;;;5093925;28;20659;-78
2021/12/25 07:36:21;;;;;;;15.77;3.87;;;-7.50;99.90;;;;;;5095089;28;20169;-79
2021/12/25 07:38:46;;;;;;;2.63;2.33;;;-7.70;99.90;;;;;;5095074;28;20555;-79
2021/12/25 07:41:13;;;;;;;3.40;3.10;;;-7.70;99.90;;;;;;5094730;28;20171;-79
2021/12/25 07:43:40;;;;;;;4.17;2.23;;;-7.60;99.90;;;;;;5095103;28;20180;-78
2021/12/25 07:46:06;;;;;;;2.53;2.33;;;-7.60;99.90;;;;;;5094966;28;20406;-78
2021/12/25 07:48:33;;;;;;;7.50;2.90;;;-7.80;99.90;;;;;;5094930;28;20418;-78
2021/12/25 07:51:02;;;;;;;1.80;1.70;;;-7.60;99.90;;;;;;5094902;28;20406;-79
2021/12/25 07:53:29;;;;;;;5.50;2.67;;;-7.50;99.90;;;;;;5094964;28;20417;-78
2021/12/25 07:55:55;;;;;;;2.83;2.67;;;-7.40;99.90;;;;;;5094437;28;20410;-79
2021/12/25 07:58:20;;;;;;;1.80;1.70;;;-7.10;99.90;;;;;;5094661;28;20861;-78
2021/12/25 08:00:46;;;;;;;3.80;3.50;;;-7.20;99.90;;;;;;5094720;28;20176;-78
2021/12/25 08:03:13;;;;;;;2.40;2.20;;;-7.10;99.90;;;;;;5094504;28;20216;-78
2021/12/25 08:05:38;;;;;;;2.23;2.13;;;-7.20;99.90;;;;;;5094862;28;20172;-78
2021/12/25 08:08:04;;;;;;;2.00;1.90;;;-6.90;99.90;;;;;;5094508;28;20417;-78
2021/12/25 08:10:31;;;;;;;3.80;2.07;;;-7.10;99.90;;;;;;5094227;28;20214;-78
2021/12/25 08:12:57;;;;;;;6.83;2.37;;;-7.30;99.90;;;;;;5094491;28;21013;-79
2021/12/25 08:15:26;;;;;;;4.03;1.87;;;-7.30;99.90;;;;;;5094476;28;20410;-79
2021/12/25 08:17:53;;;;;;;4.40;2.50;;;-7.10;99.90;;;;;;5094321;28;20434;-79
2021/12/25 08:20:19;;;;;;;2.07;1.83;;;-6.90;99.90;;;;;;5094337;28;20407;-78
2021/12/25 08:22:45;;;;;;;3.90;1.70;;;-6.90;99.90;;;;;;5094219;28;20869;-78
2021/12/25 08:25:12;;;;;;;1.87;1.70;;;-6.90;99.90;;;;;;5109696;28;20168;-79
2021/12/25 08:27:40;;;;;;;3.20;2.50;;;-7.00;99.90;;;;;;5093014;28;20432;-79
2021/12/25 08:30:10;;;;;;;4.97;3.30;;;-6.90;99.90;;;;;;5094382;28;20434;-79
2021/12/25 08:32:36;;;;;;;2.87;2.00;;;-6.70;99.90;;;;;;5094160;28;20415;-79
2021/12/25 08:35:03;;;;;;;2.00;1.67;;;-6.80;99.90;;;;;;5093993;28;20414;-79
2021/12/25 08:37:28;;;;;;;1.70;1.60;;;-6.70;99.90;;;;;;5093931;28;20449;-79
2021/12/25 08:39:54;;;;;;;3.17;2.40;;;-6.60;99.90;;;;;;5109232;28;20470;-79
2021/12/25 08:42:21;;;;;;;7.40;2.40;;;-6.40;99.90;;;;;;5093917;28;20277;-79
2021/12/25 08:45:05;;;;;;;2.67;2.47;;;-6.20;99.90;;;;;;5093949;28;20468;-79
2021/12/25 08:47:35;;;;;;;3.30;2.50;;;-6.40;99.90;;;;;;5092206;28;20473;-79
2021/12/25 08:50:05;;;;;;;2.30;2.10;;;-6.40;99.90;;;;;;5093772;28;20960;-79
2021/12/25 08:52:31;;;;;;;2.60;2.40;;;-6.40;99.90;;;;;;5093835;28;20974;-78
2021/12/25 08:54:56;;;;;;;3.63;2.83;;;-6.20;99.90;;;;;;5093384;28;20442;-79
2021/12/25 08:57:22;;;;;;;3.37;3.17;;;-5.90;99.90;;;;;;5092363;28;20245;-79
2021/12/25 08:59:54;;;;;;;2.70;2.50;;;-5.80;99.90;;;;;;5093503;28;20195;-79
2021/12/25 09:02:20;;;;;;;2.47;2.37;;;-5.60;99.90;;;;;;5093484;28;20466;-79
2021/12/25 09:04:47;;;;;;;8.17;4.10;;;-5.50;99.90;;;;;;5093619;28;20438;-79
2021/12/25 09:07:14;;;;;;;6.27;5.80;;;-5.40;99.90;;;;;;5093499;28;20395;-79
2021/12/25 09:09:40;;;;;;;10.73;5.73;;;-5.30;99.90;;;;;;5093318;28;20414;-79
2021/12/25 09:12:08;;;;;;;10.03;5.83;;;-5.20;99.90;;;;;;5093409;28;20494;-79
2021/12/25 09:14:35;;;;;;;10.60;6.77;;;-5.20;99.90;;;;;;5093579;28;20552;-79
2021/12/25 09:17:00;;;;;;;9.07;7.00;;;-5.10;99.90;;;;;;5093551;28;20772;-79
2021/12/25 09:19:26;;;;;;;9.40;5.50;;;-5.00;99.90;;;;;;5093341;28;20440;-80
2021/12/25 09:21:51;;;;;;;11.67;5.80;;;-5.00;99.90;;;;;;5091949;28;20212;-79
2021/12/25 09:24:17;;;;;;;5.33;4.83;;;-4.90;99.90;;;;;;5093265;28;20200;-79
2021/12/25 09:26:43;;;;;;;6.10;5.17;;;-4.80;99.90;;;;;;5092868;28;20173;-79
2021/12/25 09:29:09;;;;;;;3.70;3.40;;;-4.80;99.90;;;;;;5093281;28;20632;-79
2021/12/25 09:31:34;;;;;;;3.07;2.57;;;-4.70;99.90;;;;;;5092017;28;20448;-79
2021/12/25 09:34:00;;;;;;;3.80;3.50;;;-4.60;99.90;;;;;;5093178;28;20176;-79
2021/12/25 09:36:27;;;;;;;5.30;3.30;;;-4.60;99.90;;;;;;5093187;28;20171;-79
2021/12/25 09:38:53;;;;;;;5.00;2.70;;;-4.60;99.90;;;;;;5092909;28;20620;-79
2021/12/25 09:41:19;;;;;;;4.57;2.87;;;-4.50;99.90;;;;;;5092642;28;20466;-79
2021/12/25 09:43:48;;;;;;;2.57;2.37;;;-4.40;99.90;;;;;;5093362;28;20422;-79
2021/12/25 09:46:14;;;;;;;3.53;2.77;;;-4.20;99.90;;;;;;5093138;28;20411;-79
2021/12/25 09:48:40;;;;;;;2.80;2.10;;;-4.20;99.90;;;;;;5091736;28;20945;-79
2021/12/25 09:51:06;;;;;;;2.50;2.30;;;-4.20;99.90;;;;;;5092905;28;20447;-79
2021/12/25 09:53:32;;;;;;;3.27;2.37;;;-4.10;99.90;;;;;;5093148;28;20770;-79
2021/12/25 09:55:58;;;;;;;4.00;1.93;;;-4.10;99.90;;;;;;5092674;28;20209;-79
2021/12/25 09:58:24;;;;;;;2.67;2.47;;;-4.10;99.90;;;;;;5093130;28;20416;-79
2021/12/25 10:00:51;;;;;;;4.27;3.20;;;-4.10;99.90;;;;;;5097039;28;20471;-79
2021/12/25 10:03:18;;;;;;;3.87;1.60;;;-4.10;99.90;;;;;;5096922;28;20204;-79
2021/12/25 10:05:47;;;;;;;2.93;2.37;;;-4.10;99.90;;;;;;5095901;28;20468;-79
2021/12/25 10:08:20;;;;;;;2.30;1.97;;;-3.90;99.90;;;;;;5096819;28;20410;-79
2021/12/25 10:10:48;;;;;;;2.37;2.13;;;-4.00;99.90;;;;;;5096533;28;20437;-79
2021/12/25 10:13:23;;;;;;;2.90;2.57;;;-4.00;99.90;;;;;;5096731;28;20916;-79
2021/12/25 10:15:53;;;;;;;2.43;2.23;;;-3.90;99.90;;;;;;5097003;28;20846;-78
2021/12/25 10:18:27;;;;;;;4.10;2.33;;;-3.80;99.90;;;;;;5096755;28;20409;-79
2021/12/25 10:20:53;;;;;;;2.33;2.13;;;-3.80;99.90;;;;;;5096756;28;20501;-79
2021/12/25 10:23:26;;;;;;;1.97;1.87;;;-3.80;99.90;;;;;;5095300;28;20545;-79
2021/12/25 10:25:53;;;;;;;3.40;2.30;;;-3.80;99.90;;;;;;5096254;28;20165;-80
2021/12/25 10:28:32;;;;;;;5.53;3.40;;;-3.70;99.90;;;;;;5096568;28;21032;-79
2021/12/25 10:31:01;;;;;;;2.77;1.77;;;-3.60;99.90;;;;;;5096393;28;20751;-79
2021/12/25 10:33:34;;;;;;;5.57;3.13;;;-3.50;99.90;;;;;;5096352;28;20769;-79
2021/12/25 10:36:10;;;;;;;3.40;2.30;;;-3.30;99.90;;;;;;5095106;28;20513;-79
2021/12/25 10:38:37;;;;;;;2.40;2.30;;;-3.20;99.90;;;;;;5096200;28;20453;-79
2021/12/25 10:41:19;;;;;;;3.73;1.77;;;-3.20;99.90;;;;;;5095975;28;20437;-79
2021/12/25 10:43:47;;;;;;;2.30;2.10;;;-2.60;99.90;;;;;;5096396;28;20903;-79
2021/12/25 10:46:12;;;;;;;2.00;1.80;;;-1.50;99.90;;;;;;5098333;28;20952;-79
2021/12/25 10:48:38;;;;;;;3.50;1.87;;;-0.10;99.90;;;;;;5095120;28;20420;-79
2021/12/25 10:51:04;;;;;;;2.03;1.77;;;0.40;99.90;;;;;;5096131;28;20176;-80
2021/12/25 10:53:40;;;;;;;3.47;2.63;;;0.50;99.90;;;;;;5096178;28;20275;-80
2021/12/25 10:56:10;;;;;;;3.60;2.00;;;-0.20;99.90;;;;;;5095652;28;20765;-80
2021/12/25 10:58:37;;;;;;;3.23;1.70;;;0.40;99.90;;;;;;5094608;28;20439;-80
2021/12/25 11:01:06;;;;;;;5.03;1.73;;;1.90;99.90;;;;;;5096201;28;20425;-80
2021/12/25 11:03:35;;;;;;;1.83;1.07;;;2.30;99.90;;;;;;5095875;28;20466;-80
2021/12/25 11:06:16;;;;;;;3.67;1.20;;;3.10;99.90;;;;;;5095781;28;20410;-80
2021/12/25 11:08:42;;;;;;;6.90;1.23;;;3.80;99.90;;;;;;5095902;28;20822;-80
2021/12/25 11:11:09;;;;;;;3.10;1.30;;;4.80;98.60;;;;;;5095021;28;20412;-81
2021/12/25 11:13:44;;;;;;;3.27;1.20;;;5.20;96.70;;;;;;5095834;28;20456;-81
2021/12/25 11:16:21;;;;;;;2.43;1.03;;;5.10;95.90;;;;;;5095752;28;20471;-81
2021/12/25 11:19:12;;;;;;;3.27;1.97;;;5.00;95.10;;;;;;5095563;28;20419;-81
2021/12/25 11:21:43;;;;;;;4.00;1.03;;;5.10;95.40;;;;;;5094189;28;20551;-81
2021/12/25 11:24:22;;;;;;;3.90;1.33;;;3.80;99.30;;;;;;5095391;28;20424;-81
2021/12/25 11:26:54;;;;;;;3.87;2.30;;;4.70;97.40;;;;;;5095282;28;20413;-81
2021/12/25 11:29:22;;;;;;;4.20;2.03;;;4.60;96.70;;;;;;5095575;28;20494;-81
2021/12/25 11:31:51;;;;;;;5.37;2.00;;;2.60;99.90;;;;;;5095213;28;20548;-81
2021/12/25 11:34:18;;;;;;;2.90;1.77;;;2.40;99.90;;;;;;5095265;28;20414;-81
2021/12/25 11:36:48;;;;;;;3.23;1.80;;;3.00;99.90;;;;;;5095072;28;20406;-81
2021/12/25 11:39:15;;;;;;;4.53;2.27;;;3.00;99.90;;;;;;5094555;28;20462;-81
2021/12/25 11:41:42;;;;;;;2.90;1.60;;;3.10;99.90;;;;;;5093775;28;20958;-81
2021/12/25 11:44:34;;;;;;;4.20;1.97;;;3.30;99.90;;;;;;5095122;28;20473;-81
2021/12/25 11:47:02;;;;;;;3.40;1.70;;;2.60;99.90;;;;;;5095099;28;20427;-81
2021/12/25 11:49:28;;;;;;;5.80;2.10;;;2.30;99.90;;;;;;5094914;28;20410;-81
2021/12/25 11:51:54;;;;;;;3.43;1.53;;;3.30;99.90;;;;;;5094782;28;20924;-81
2021/12/25 11:54:39;;;;;;;4.80;1.77;;;3.70;99.90;;;;;;5093174;28;20464;-81
2021/12/25 11:57:35;;;;;;;3.43;1.43;;;4.80;97.00;;;;;;5094835;28;20444;-81
2021/12/25 11:59:58;;;;;;;2.50;1.43;;;5.00;94.60;;;;;;5094645;28;20422;-81
2021/12/25 12:02:43;;;;;;;3.43;2.37;;;5.70;93.00;;;;;;5094650;28;20473;-81
2021/12/25 12:05:27;;;;;;;4.27;1.80;;;4.70;94.80;;;;;;5094723;28;20425;-81
2021/12/25 12:08:11;;;;;;;4.23;1.90;;;4.80;95.80;;;;;;5094572;28;20420;-81
2021/12/25 12:10:46;;;;;;;4.70;1.90;;;5.00;95.70;;;;;;5094282;28;20410;-81
2021/12/25 12:13:22;;;;;;;2.43;1.70;;;6.70;92.30;;;;;;5094466;28;20418;-81
2021/12/25 12:15:50;;;;;;;3.40;1.63;;;7.10;90.20;;;;;;5094462;28;20410;-81
2021/12/25 12:18:30;;;;;;;3.37;1.60;;;7.60;88.00;;;;;;5094482;28;20403;-81
2021/12/25 12:21:05;;;;;;;5.93;0.93;;;7.20;86.40;;;;;;5094520;28;20425;-81
2021/12/25 12:24:11;;;;;;;2.37;1.30;;;5.60;90.70;;;;;;5093774;28;20475;-81
2021/12/25 12:26:50;;;;;;;4.00;1.23;;;5.20;93.10;;;;;;5094285;28;20413;-81
2021/12/25 12:29:38;;;;;;;4.57;1.50;;;4.90;92.10;;;;;;5094359;28;20426;-81
2021/12/25 12:32:04;;;;;;;3.43;1.37;;;4.80;92.80;;;;;;5094070;28;20773;-81
2021/12/25 12:34:29;;;;;;;4.57;1.33;;;4.60;93.00;;;;;;5094075;28;20546;-81
2021/12/25 12:37:31;;;;;;;3.17;1.40;;;3.80;93.00;;;;;;5092943;28;20537;-81
2021/12/25 12:40:00;;;;;;;4.83;2.53;;;1.70;99.90;;;;;;5031058;28;20225;-81
2021/12/25 12:42:41;;;;;;;4.70;1.40;;;1.40;99.90;;;;;;5082635;28;20868;-82
2021/12/25 12:45:20;;;;;;;3.37;1.70;;;1.00;99.90;;;;;;5092692;28;20464;-83
2021/12/25 12:48:08;;;;;;;2.60;1.53;;;0.70;99.90;;;;;;5094036;28;20426;-81
2021/12/25 12:50:36;;;;;;;5.83;3.50;;;0.40;99.90;;;;;;5093811;28;20412;-81
2021/12/25 12:53:06;;;;;;;4.00;2.10;;;0.50;99.90;;;;;;5093647;28;20414;-81
2021/12/25 12:55:34;;;;;;;3.33;1.23;;;0.30;99.90;;;;;;5092140;28;20456;-81
2021/12/25 12:58:10;;;;;;;3.63;1.37;;;0.30;99.90;;;;;;5092253;28;20489;-81
2021/12/25 13:00:36;;;;;;;7.03;2.50;;;0.00;99.90;;;;;;5093551;28;20497;-81
2021/12/25 13:03:02;;;;;;;5.90;1.60;;;-0.10;99.90;;;;;;5093531;28;20570;-81
2021/12/25 13:05:41;;;;;;;6.27;3.03;;;0.00;99.90;;;;;;5093681;28;20967;-81
2021/12/25 13:08:15;;;;;;;1.37;1.00;;;0.10;99.90;;;;;;5093789;28;20751;-81
2021/12/25 13:11:06;;;;;;;5.50;1.80;;;0.20;99.90;;;;;;5093210;28;20493;-81
2021/12/25 13:13:38;;;;;;;1.57;0.87;;;0.20;99.90;;;;;;5093405;28;20439;-80
2021/12/25 13:16:07;;;;;;;2.00;1.80;;;0.00;99.90;;;;;;5093553;28;20414;-81
2021/12/25 13:18:38;;;;;;;1.90;0.73;;;0.20;99.90;;;;;;5093424;28;20394;-80
2021/12/25 13:21:12;;;;;;;6.30;1.67;;;0.00;99.90;;;;;;5093441;28;20414;-80
2021/12/25 13:23:46;;;;;;;2.43;1.60;;;0.20;99.90;;;;;;5093329;28;20470;-80
2021/12/25 13:26:14;;;;;;;2.90;1.60;;;0.10;99.90;;;;;;5092953;28;20407;-81
2021/12/25 13:28:42;;;;;;;3.73;1.70;;;0.10;99.90;;;;;;5093258;28;20498;-80
2021/12/25 13:31:18;;;;;;;2.47;1.20;;;0.10;99.90;;;;;;5093328;28;20405;-80
2021/12/25 13:33:50;;;;;;;1.63;1.53;;;-0.20;99.90;;;;;;5093161;28;20406;-80
2021/12/25 13:36:29;;;;;;;2.93;1.37;;;-0.30;99.90;;;;;;5093422;28;20505;-80
2021/12/25 13:39:00;;;;;;;2.33;1.07;;;-0.20;99.90;;;;;;5092522;28;20487;-80
2021/12/25 13:41:45;;;;;;;2.47;0.67;;;-0.30;99.90;;;;;;5093146;28;20406;-80
2021/12/25 13:44:15;;;;;;;2.80;1.93;;;-0.40;99.90;;;;;;5093254;28;20425;-80
2021/12/25 13:46:57;;;;;;;2.73;1.13;;;-0.50;99.90;;;;;;5093470;28;20933;-80
2021/12/25 13:49:39;;;;;;;3.30;1.80;;;-0.50;99.90;;;;;;5093360;28;20535;-81
2021/12/25 13:52:06;;;;;;;2.93;1.40;;;-0.50;99.90;;;;;;5093055;28;20409;-80
2021/12/25 13:54:33;;;;;;;2.00;1.10;;;-0.70;99.90;;;;;;5091425;28;20427;-80
2021/12/25 13:56:59;;;;;;;1.20;1.07;;;-0.70;99.90;;;;;;5092959;28;20421;-80
2021/12/25 13:59:25;;;;;;;2.23;0.63;;;-0.70;99.90;;;;;;5092968;28;20815;-80
2021/12/25 14:02:02;;;;;;;3.23;1.27;;;-0.70;99.90;;;;;;5092797;28;20195;-80
2021/12/25 14:04:28;;;;;;;7.17;1.70;;;-0.90;99.90;;;;;;5092979;28;20413;-81
2021/12/25 14:06:53;;;;;;;1.50;1.00;;;-1.10;99.90;;;;;;5092785;28;20761;-80